createdAt,value
2023-01-17T00:01:51.057Z,96.54
2023-01-17T00:04:40.705Z,96.52
2023-01-17T00:07:29.799Z,96.67
2023-01-17T00:10:03.310Z,96.70
2023-01-17T00:12:32.806Z,96.71
2023-01-17T00:15:01.548Z,96.64
2023-01-17T00:17:30.840Z,96.55
2023-01-17T00:20:20.004Z,96.41
2023-01-17T00:23:04.941Z,96.38
2023-01-17T00:25:53.021Z,96.43
2023-01-17T00:28:20.118Z,96.39
2023-01-17T00:30:47.349Z,96.36
2023-01-17T00:33:14.328Z,96.46
2023-01-17T00:35:42.704Z,96.32
2023-01-17T00:38:11.814Z,96.34
2023-01-17T00:40:40.104Z,96.43
2023-01-17T00:43:26.483Z,96.55
2023-01-17T00:46:12.177Z,96.59
2023-01-17T00:48:58.414Z,96.59
2023-01-17T00:51:46.512Z,96.64
2023-01-17T00:54:32.110Z,96.76
2023-01-17T00:57:17.719Z,96.77
2023-01-17T01:00:03.796Z,96.68
2023-01-17T01:02:49.305Z,96.60
2023-01-17T01:05:35.000Z,96.47
2023-01-17T01:08:22.314Z,96.52
2023-01-17T01:11:07.855Z,96.69
2023-01-17T01:13:53.208Z,96.66
2023-01-17T01:16:38.788Z,96.75
2023-01-17T01:19:24.941Z,96.85
2023-01-17T01:22:10.739Z,96.75
2023-01-17T01:24:57.471Z,96.68
2023-01-17T01:27:43.256Z,96.74
2023-01-17T01:30:29.833Z,96.62
2023-01-17T01:33:15.499Z,96.36
2023-01-17T01:35:43.657Z,96.32
2023-01-17T01:38:11.921Z,96.41
2023-01-17T01:40:45.992Z,96.38
2023-01-17T01:43:16.304Z,96.38
2023-01-17T01:45:48.480Z,96.44
2023-01-17T01:48:32.287Z,96.39
2023-01-17T01:51:01.727Z,96.28
2023-01-17T01:53:32.168Z,96.10
2023-01-17T01:56:02.066Z,96.07
2023-01-17T01:58:33.250Z,96.18
2023-01-17T02:01:11.320Z,96.17
2023-01-17T02:03:42.145Z,96.03
2023-01-17T02:06:21.872Z,95.90
2023-01-17T02:08:50.302Z,95.97
2023-01-17T02:11:20.070Z,96.02
2023-01-17T02:13:48.234Z,95.98
2023-01-17T02:16:33.148Z,96.09
2023-01-17T02:19:21.801Z,96.11
2023-01-17T02:22:08.293Z,96.21
2023-01-17T02:24:49.500Z,96.38
2023-01-17T02:27:26.604Z,96.24
2023-01-17T02:30:25.455Z,96.23
2023-01-17T02:33:03.508Z,96.30
2023-01-17T02:35:39.401Z,96.00
2023-01-17T02:38:16.465Z,96.06
2023-01-17T02:40:48.955Z,96.00
2023-01-17T02:43:18.883Z,96.17
2023-01-17T02:45:48.468Z,96.17
2023-01-17T02:48:21.901Z,96.01
2023-01-17T02:51:10.178Z,95.90
2023-01-17T02:53:51.614Z,95.99
2023-01-17T02:56:34.103Z,96.04
2023-01-17T02:59:15.609Z,96.02
2023-01-17T03:01:56.890Z,95.75
2023-01-17T03:04:31.427Z,95.75
2023-01-17T03:07:02.904Z,95.84
2023-01-17T03:09:36.890Z,95.85
2023-01-17T03:12:06.087Z,95.86
2023-01-17T03:14:34.308Z,95.95
2023-01-17T03:17:03.938Z,96.13
2023-01-17T03:19:32.346Z,96.14
2023-01-17T03:22:00.538Z,95.89
2023-01-17T03:24:28.823Z,95.83
2023-01-17T03:26:56.937Z,95.72
2023-01-17T03:29:25.075Z,95.78
2023-01-17T03:31:53.184Z,95.84
2023-01-17T03:34:22.733Z,95.74
2023-01-17T03:36:50.882Z,95.78
2023-01-17T03:39:18.997Z,95.83
2023-01-17T03:41:47.124Z,95.86
2023-01-17T03:44:15.307Z,95.84
2023-01-17T03:46:43.640Z,95.80
2023-01-17T03:49:11.794Z,95.71
2023-01-17T03:51:41.358Z,95.64
2023-01-17T03:54:09.812Z,95.73
2023-01-17T03:56:37.994Z,95.78
2023-01-17T03:59:06.152Z,95.67
2023-01-17T04:01:34.418Z,95.53
2023-01-17T04:04:02.777Z,95.51
2023-01-17T04:06:30.958Z,95.51
2023-01-17T04:09:00.503Z,95.16
2023-01-17T04:11:28.615Z,95.38
2023-01-17T04:13:56.832Z,95.57
2023-01-17T04:16:29.620Z,95.35
2023-01-17T04:18:58.012Z,95.39
2023-01-17T04:21:26.173Z,95.38
2023-01-17T04:23:54.265Z,95.38
2023-01-17T04:26:23.794Z,95.30
2023-01-17T04:28:51.919Z,95.20
2023-01-17T04:31:20.137Z,95.27
2023-01-17T04:33:48.317Z,95.25
2023-01-17T04:36:16.468Z,95.13
2023-01-17T04:38:44.650Z,94.69
2023-01-17T04:41:12.825Z,94.84
2023-01-17T04:43:42.334Z,94.79
2023-01-17T04:46:11.058Z,94.58
2023-01-17T04:48:39.495Z,94.43
2023-01-17T04:51:07.936Z,94.51
2023-01-17T04:53:36.072Z,94.20
2023-01-17T04:56:04.410Z,94.26
2023-01-17T04:58:33.540Z,94.24
2023-01-17T05:01:07.954Z,94.20
2023-01-17T05:03:36.753Z,94.12
2023-01-17T05:06:04.921Z,93.71
2023-01-17T05:08:33.133Z,93.83
2023-01-17T05:11:01.257Z,93.19
2023-01-17T05:13:29.566Z,93.25
2023-01-17T05:15:58.455Z,93.23
2023-01-17T05:18:28.064Z,93.19
2023-01-17T05:20:56.194Z,93.21
2023-01-17T05:23:25.455Z,93.42
2023-01-17T05:25:53.608Z,93.04
2023-01-17T05:28:21.818Z,93.37
2023-01-17T05:30:50.008Z,93.00
2023-01-17T05:33:18.171Z,93.40
2023-01-17T05:35:47.679Z,93.39
2023-01-17T05:38:16.117Z,93.39
2023-01-17T05:40:44.250Z,93.16
2023-01-17T05:43:12.394Z,92.97
2023-01-17T05:45:40.587Z,93.26
2023-01-17T05:48:08.908Z,93.64
2023-01-17T05:50:39.088Z,93.41
2023-01-17T05:53:09.945Z,93.51
2023-01-17T05:55:38.823Z,93.73
2023-01-17T05:58:07.895Z,93.61
2023-01-17T06:00:37.403Z,93.93
2023-01-17T06:03:05.702Z,94.21
2023-01-17T06:05:33.866Z,94.13
2023-01-17T06:08:02.008Z,94.36
2023-01-17T06:10:31.867Z,94.25
2023-01-17T06:13:05.129Z,94.25
2023-01-17T06:15:34.123Z,94.43
2023-01-17T06:18:06.008Z,94.33
2023-01-17T06:20:34.609Z,94.56
2023-01-17T06:23:04.458Z,94.63
2023-01-17T06:25:37.977Z,94.65
2023-01-17T06:28:06.847Z,94.73
2023-01-17T06:30:37.707Z,94.93
2023-01-17T06:33:06.289Z,95.59
2023-01-17T06:35:34.593Z,95.15
2023-01-17T06:38:02.879Z,95.00
2023-01-17T06:40:31.516Z,94.07
2023-01-17T06:43:02.994Z,94.25
2023-01-17T06:45:32.253Z,94.09
2023-01-17T06:48:01.526Z,94.45
2023-01-17T06:50:29.643Z,94.20
2023-01-17T06:52:59.769Z,94.93
2023-01-17T06:55:29.452Z,93.87
2023-01-17T06:57:59.629Z,94.39
2023-01-17T07:00:30.347Z,93.71
2023-01-17T07:02:58.666Z,93.26
2023-01-17T07:05:28.585Z,93.28
2023-01-17T07:07:56.868Z,93.89
2023-01-17T07:10:25.015Z,93.45
2023-01-17T07:12:53.162Z,93.80
2023-01-17T07:15:21.316Z,94.54
2023-01-17T07:17:50.833Z,94.35
2023-01-17T07:20:19.074Z,94.04
2023-01-17T07:22:47.220Z,94.34
2023-01-17T07:25:15.525Z,93.98
2023-01-17T07:27:43.688Z,94.04
2023-01-17T07:30:15.074Z,94.41
2023-01-17T07:32:43.215Z,94.26
2023-01-17T07:35:12.825Z,94.34
2023-01-17T07:37:40.922Z,93.66
2023-01-17T07:40:10.463Z,93.25
2023-01-17T07:42:38.626Z,93.39
2023-01-17T07:45:08.268Z,93.44
2023-01-17T07:47:36.357Z,93.20
2023-01-17T07:50:04.692Z,93.81
2023-01-17T07:52:34.258Z,94.22
2023-01-17T07:55:02.403Z,93.60
2023-01-17T07:57:30.545Z,93.60
2023-01-17T07:59:58.695Z,93.55
2023-01-17T08:02:28.881Z,93.59
2023-01-17T08:04:57.291Z,93.61
2023-01-17T08:07:25.477Z,93.47
2023-01-17T08:09:55.565Z,93.37
2023-01-17T08:12:26.044Z,93.38
2023-01-17T08:14:56.520Z,92.59
2023-01-17T08:17:24.742Z,92.18
2023-01-17T08:19:53.228Z,92.82
2023-01-17T08:22:21.571Z,92.30
2023-01-17T08:24:49.795Z,90.31
2023-01-17T08:27:19.405Z,89.88
2023-01-17T08:29:49.635Z,90.49
2023-01-17T08:32:17.832Z,90.89
2023-01-17T08:34:46.076Z,91.51
2023-01-17T08:37:14.323Z,90.98
2023-01-17T08:39:42.629Z,91.07
2023-01-17T08:42:10.850Z,91.83
2023-01-17T08:44:40.494Z,91.73
2023-01-17T08:47:08.794Z,91.42
2023-01-17T08:49:37.118Z,91.39
2023-01-17T08:52:06.403Z,91.03
2023-01-17T08:54:34.725Z,91.41
2023-01-17T08:57:03.937Z,91.44
2023-01-17T08:59:32.103Z,90.57
2023-01-17T09:02:06.799Z,90.66
2023-01-17T09:04:35.173Z,90.24
2023-01-17T09:07:03.307Z,89.83
2023-01-17T09:09:31.387Z,89.86
2023-01-17T09:11:59.488Z,88.89
2023-01-17T09:14:27.757Z,85.96
2023-01-17T09:16:55.944Z,86.32
2023-01-17T09:19:25.510Z,88.54
2023-01-17T09:21:53.682Z,87.74
2023-01-17T09:24:21.879Z,88.84
2023-01-17T09:26:50.147Z,88.51
2023-01-17T09:29:18.922Z,86.44
2023-01-17T09:31:47.440Z,87.38
2023-01-17T09:34:15.717Z,87.69
2023-01-17T09:36:45.589Z,85.98
2023-01-17T09:39:15.668Z,86.38
2023-01-17T09:41:50.083Z,85.16
2023-01-17T09:44:27.019Z,84.47
2023-01-17T09:46:58.444Z,83.87
2023-01-17T09:49:36.075Z,84.81
2023-01-17T09:52:13.513Z,83.54
2023-01-17T09:54:43.596Z,82.60
2023-01-17T09:57:20.077Z,82.81
2023-01-17T10:00:03.222Z,83.29
2023-01-17T10:02:47.382Z,81.31
2023-01-17T10:05:30.053Z,82.99
2023-01-17T10:08:14.401Z,81.37
2023-01-17T10:10:50.292Z,80.08
2023-01-17T10:13:35.327Z,79.47
2023-01-17T10:16:17.788Z,78.62
2023-01-17T10:19:16.952Z,80.44
2023-01-17T10:22:02.897Z,80.38
2023-01-17T10:25:14.913Z,78.88
2023-01-17T10:27:47.230Z,80.16
2023-01-17T10:30:19.529Z,80.28
2023-01-17T10:32:50.811Z,80.98
2023-01-17T10:35:24.948Z,79.31
2023-01-17T10:37:57.119Z,80.67
2023-01-17T10:40:38.533Z,80.51
2023-01-17T10:43:14.583Z,80.79
2023-01-17T10:45:49.890Z,80.86
2023-01-17T10:48:35.746Z,79.78
2023-01-17T10:51:12.724Z,81.82
2023-01-17T10:53:52.113Z,80.31
2023-01-17T10:56:28.162Z,79.36
2023-01-17T10:59:11.193Z,78.60
2023-01-17T11:01:40.680Z,77.84
2023-01-17T11:04:17.974Z,76.60
2023-01-17T11:06:57.766Z,77.04
2023-01-17T11:09:38.998Z,78.82
2023-01-17T11:12:19.830Z,78.76
2023-01-17T11:14:59.196Z,77.86
2023-01-17T11:17:28.704Z,77.69
2023-01-17T11:20:09.403Z,74.86
2023-01-17T11:22:37.869Z,74.16
2023-01-17T11:25:08.257Z,76.01
2023-01-17T11:27:41.642Z,75.18
2023-01-17T11:30:18.053Z,75.30
2023-01-17T11:32:58.037Z,75.36
2023-01-17T11:35:30.473Z,73.97
2023-01-17T11:38:05.823Z,71.47
2023-01-17T11:40:38.877Z,73.08
2023-01-17T11:43:21.214Z,74.30
2023-01-17T11:46:03.680Z,73.89
2023-01-17T11:48:39.836Z,75.63
2023-01-17T11:51:20.365Z,74.10
2023-01-17T11:53:49.336Z,73.07
2023-01-17T11:56:25.570Z,73.47
2023-01-17T11:59:19.891Z,75.52
2023-01-17T12:01:58.130Z,74.70
2023-01-17T12:04:32.178Z,71.27
2023-01-17T12:07:18.514Z,70.56
2023-01-17T12:09:49.849Z,70.58
2023-01-17T12:12:45.096Z,72.91
2023-01-17T12:15:27.715Z,74.25
2023-01-17T12:18:18.465Z,74.34
2023-01-17T12:20:57.664Z,74.67
2023-01-17T12:23:40.693Z,73.69
2023-01-17T12:26:20.808Z,74.69
2023-01-17T12:29:27.048Z,71.94
2023-01-17T12:32:09.468Z,72.37
2023-01-17T12:34:48.352Z,73.17
2023-01-17T12:37:22.271Z,72.74
2023-01-17T12:39:59.666Z,73.45
2023-01-17T12:42:33.188Z,73.10
2023-01-17T12:45:08.809Z,74.51
2023-01-17T12:47:43.327Z,75.04
2023-01-17T12:50:22.532Z,73.97
2023-01-17T12:53:00.627Z,74.30
2023-01-17T12:55:37.008Z,75.04
2023-01-17T12:58:13.906Z,73.01
2023-01-17T13:00:46.608Z,74.34
2023-01-17T13:03:24.822Z,75.11
2023-01-17T13:05:53.512Z,74.78
2023-01-17T13:08:28.266Z,72.73
2023-01-17T13:11:00.378Z,75.42
2023-01-17T13:13:30.370Z,75.43
2023-01-17T13:16:03.698Z,75.65
2023-01-17T13:18:33.504Z,77.00
2023-01-17T13:21:31.378Z,77.23
2023-01-17T13:24:19.979Z,76.87
2023-01-17T13:27:01.089Z,77.30
2023-01-17T13:29:41.685Z,78.02
2023-01-17T13:32:23.741Z,79.16
2023-01-17T13:35:23.346Z,79.87
2023-01-17T13:38:17.763Z,79.37
2023-01-17T13:40:51.980Z,79.36
2023-01-17T13:43:24.111Z,78.90
2023-01-17T13:45:54.622Z,79.70
2023-01-17T13:48:31.699Z,79.12
2023-01-17T13:51:02.798Z,78.66
2023-01-17T13:53:56.563Z,79.55
2023-01-17T13:56:36.573Z,79.70
2023-01-17T13:59:30.359Z,80.48
2023-01-17T14:01:58.751Z,80.71
2023-01-17T14:05:05.362Z,82.39
2023-01-17T14:07:37.020Z,82.53
2023-01-17T14:10:24.479Z,83.35
2023-01-17T14:12:52.763Z,83.58
2023-01-17T14:15:22.519Z,82.22
2023-01-17T14:17:57.141Z,82.21
2023-01-17T14:20:53.061Z,82.71
2023-01-17T14:24:02.077Z,82.69
2023-01-17T14:26:47.112Z,82.68
2023-01-17T14:29:46.014Z,83.15
2023-01-17T14:32:16.798Z,83.32
2023-01-17T14:34:46.162Z,83.83
2023-01-17T14:37:21.444Z,83.94
2023-01-17T14:39:51.793Z,83.15
2023-01-17T14:42:24.352Z,83.96
2023-01-17T14:44:56.223Z,83.44
2023-01-17T14:47:31.846Z,83.80
2023-01-17T14:50:19.977Z,83.95
2023-01-17T14:52:50.511Z,83.80
2023-01-17T14:55:21.090Z,83.94
2023-01-17T14:57:57.075Z,84.29
2023-01-17T15:00:25.931Z,84.13
2023-01-17T15:02:55.303Z,84.68
2023-01-17T15:05:26.549Z,84.48
2023-01-17T15:07:58.787Z,84.41
2023-01-17T15:10:30.374Z,84.73
2023-01-17T15:13:09.063Z,84.78
2023-01-17T15:15:39.927Z,84.95
2023-01-17T15:18:30.175Z,84.38
2023-01-17T15:21:03.952Z,84.02
2023-01-17T15:23:35.291Z,83.47
2023-01-17T15:26:05.755Z,83.61
2023-01-17T15:28:36.615Z,84.55
2023-01-17T15:31:11.590Z,84.59
2023-01-17T15:33:41.784Z,84.31
2023-01-17T15:36:17.889Z,84.01
2023-01-17T15:38:53.496Z,84.03
2023-01-17T15:41:23.866Z,83.96
2023-01-17T15:44:01.643Z,83.52
2023-01-17T15:46:36.241Z,82.64
2023-01-17T15:49:19.452Z,82.27
2023-01-17T15:51:50.350Z,82.24
2023-01-17T15:54:36.890Z,83.18
2023-01-17T15:57:24.144Z,82.85
2023-01-17T16:00:07.049Z,81.99
2023-01-17T16:02:44.532Z,82.60
2023-01-17T16:05:41.982Z,83.61
2023-01-17T16:08:39.971Z,82.98
2023-01-17T16:11:12.788Z,83.29
2023-01-17T16:13:43.312Z,83.40
2023-01-17T16:16:21.985Z,82.92
2023-01-17T16:18:52.201Z,83.94
2023-01-17T16:21:26.110Z,83.50
2023-01-17T16:23:54.608Z,83.54
2023-01-17T16:26:23.028Z,83.81
2023-01-17T16:28:51.789Z,84.28
2023-01-17T16:31:24.147Z,83.31
2023-01-17T16:33:53.590Z,83.19
2023-01-17T16:36:25.294Z,83.64
2023-01-17T16:38:54.215Z,84.05
2023-01-17T16:41:22.788Z,83.67
2023-01-17T16:44:02.157Z,83.76
2023-01-17T16:46:32.206Z,84.32
2023-01-17T16:49:02.573Z,84.08
2023-01-17T16:51:30.915Z,84.57
2023-01-17T16:53:59.635Z,83.43
2023-01-17T16:56:27.839Z,85.01
2023-01-17T16:58:56.703Z,84.58
2023-01-17T17:01:25.708Z,85.45
2023-01-17T17:03:55.644Z,84.80
2023-01-17T17:06:23.998Z,85.82
2023-01-17T17:08:52.525Z,85.94
2023-01-17T17:11:23.292Z,86.31
2023-01-17T17:13:52.505Z,85.82
2023-01-17T17:16:24.457Z,86.57
2023-01-17T17:18:58.665Z,87.09
2023-01-17T17:21:28.044Z,88.01
2023-01-17T17:23:58.274Z,88.01
2023-01-17T17:26:30.947Z,88.42
2023-01-17T17:28:59.520Z,88.48
2023-01-17T17:31:28.341Z,88.31
2023-01-17T17:34:01.476Z,88.48
2023-01-17T17:36:31.056Z,88.64
2023-01-17T17:39:05.010Z,88.57
2023-01-17T17:41:35.971Z,88.79
2023-01-17T17:44:05.505Z,89.30
2023-01-17T17:46:36.172Z,89.12
2023-01-17T17:49:07.780Z,89.79
2023-01-17T17:51:38.686Z,89.45
2023-01-17T17:54:09.637Z,89.58
2023-01-17T17:56:40.846Z,89.81
2023-01-17T17:59:18.365Z,89.92
2023-01-17T18:01:52.251Z,90.32
2023-01-17T18:04:22.875Z,90.18
2023-01-17T18:06:52.753Z,90.63
2023-01-17T18:09:22.426Z,90.72
2023-01-17T18:11:52.075Z,91.05
2023-01-17T18:14:24.332Z,91.11
2023-01-17T18:16:54.314Z,91.11
2023-01-17T18:19:27.935Z,90.88
2023-01-17T18:21:58.397Z,91.33
2023-01-17T18:24:30.350Z,91.33
2023-01-17T18:27:00.137Z,91.56
2023-01-17T18:29:32.054Z,91.37
2023-01-17T18:32:01.229Z,91.81
2023-01-17T18:34:31.718Z,92.07
2023-01-17T18:37:00.630Z,92.11
2023-01-17T18:39:32.009Z,92.48
2023-01-17T18:42:00.977Z,91.96
2023-01-17T18:44:33.352Z,92.16
2023-01-17T18:47:07.429Z,91.01
2023-01-17T18:49:38.699Z,91.14
2023-01-17T18:52:13.865Z,90.39
2023-01-17T18:54:45.183Z,90.65
2023-01-17T18:57:14.747Z,91.35
2023-01-17T18:59:45.295Z,90.85
2023-01-17T19:02:14.773Z,91.01
2023-01-17T19:04:49.512Z,91.21
2023-01-17T19:07:21.847Z,91.25
2023-01-17T19:09:51.177Z,91.25
2023-01-17T19:12:23.749Z,90.57
2023-01-17T19:14:55.192Z,90.71
2023-01-17T19:17:25.759Z,90.69
2023-01-17T19:19:58.359Z,90.05
2023-01-17T19:22:32.148Z,90.40
2023-01-17T19:25:01.017Z,90.87
2023-01-17T19:27:30.695Z,91.06
2023-01-17T19:30:00.585Z,90.73
2023-01-17T19:32:30.588Z,91.01
2023-01-17T19:35:01.606Z,91.26
2023-01-17T19:37:32.235Z,91.03
2023-01-17T19:40:01.735Z,91.08
2023-01-17T19:42:31.099Z,91.28
2023-01-17T19:45:00.450Z,91.82
2023-01-17T19:47:31.782Z,91.59
2023-01-17T19:50:04.859Z,91.81
2023-01-17T19:52:37.390Z,91.72
2023-01-17T19:55:10.420Z,91.91
2023-01-17T19:57:41.272Z,92.06
2023-01-17T20:00:14.864Z,91.87
2023-01-17T20:02:46.187Z,91.93
2023-01-17T20:05:17.721Z,91.73
2023-01-17T20:07:47.292Z,91.33
2023-01-17T20:10:18.114Z,91.56
2023-01-17T20:12:48.097Z,91.78
2023-01-17T20:15:19.913Z,91.82
2023-01-17T20:17:49.299Z,91.93
2023-01-17T20:20:20.529Z,92.15
2023-01-17T20:22:50.133Z,91.33
2023-01-17T20:25:20.075Z,91.67
2023-01-17T20:27:49.896Z,91.77
2023-01-17T20:30:21.272Z,92.47
2023-01-17T20:32:50.521Z,92.48
2023-01-17T20:35:20.676Z,92.24
2023-01-17T20:37:54.276Z,92.17
2023-01-17T20:40:24.097Z,90.25
2023-01-17T20:42:55.158Z,89.94
2023-01-17T20:45:24.321Z,89.19
2023-01-17T20:47:52.950Z,89.61
2023-01-17T20:50:23.442Z,90.17
2023-01-17T20:52:52.396Z,91.24
2023-01-17T20:55:23.949Z,91.23
2023-01-17T20:57:53.205Z,91.75
2023-01-17T21:00:22.298Z,91.73
2023-01-17T21:02:51.475Z,91.93
2023-01-17T21:05:19.586Z,91.66
2023-01-17T21:07:50.631Z,90.72
2023-01-17T21:10:19.632Z,91.34
2023-01-17T21:12:48.456Z,91.27
2023-01-17T21:15:17.645Z,91.59
2023-01-17T21:17:46.012Z,91.65
2023-01-17T21:20:15.056Z,91.09
2023-01-17T21:22:43.368Z,90.79
2023-01-17T21:25:13.445Z,90.86
2023-01-17T21:27:41.696Z,91.41
2023-01-17T21:30:11.243Z,91.19
2023-01-17T21:32:39.884Z,91.51
2023-01-17T21:35:08.719Z,91.84
2023-01-17T21:37:37.405Z,91.96
2023-01-17T21:40:06.288Z,91.66
2023-01-17T21:42:35.980Z,91.70
2023-01-17T21:45:04.177Z,92.16
2023-01-17T21:47:32.413Z,92.47
2023-01-17T21:50:00.652Z,92.60
2023-01-17T21:52:31.672Z,93.58
2023-01-17T21:55:17.381Z,93.55
2023-01-17T21:58:04.587Z,93.23
2023-01-17T22:00:32.955Z,92.42
2023-01-17T22:03:01.261Z,92.34
2023-01-17T22:05:29.543Z,91.82
2023-01-17T22:08:13.157Z,91.75
2023-01-17T22:10:45.746Z,92.20
2023-01-17T22:13:17.127Z,92.28
2023-01-17T22:15:46.078Z,92.49
2023-01-17T22:18:15.426Z,92.00
2023-01-17T22:20:44.313Z,92.69
2023-01-17T22:23:12.898Z,92.77
2023-01-17T22:25:41.392Z,93.38
2023-01-17T22:28:09.595Z,93.47
2023-01-17T22:30:39.390Z,92.90
2023-01-17T22:33:07.622Z,92.82
2023-01-17T22:35:35.817Z,92.39
2023-01-17T22:38:04.277Z,92.90
2023-01-17T22:40:38.230Z,93.85
2023-01-17T22:43:06.424Z,94.13
2023-01-17T22:45:34.617Z,94.27
2023-01-17T22:48:04.118Z,94.60
2023-01-17T22:50:32.380Z,93.47
2023-01-17T22:53:00.512Z,93.22
2023-01-17T22:55:28.775Z,93.80
2023-01-17T22:57:57.184Z,94.15
2023-01-17T23:00:25.361Z,94.28
2023-01-17T23:02:54.569Z,94.33
2023-01-17T23:05:25.246Z,94.27
2023-01-17T23:07:53.671Z,94.67
2023-01-17T23:10:35.633Z,94.29
2023-01-17T23:13:03.774Z,94.60
2023-01-17T23:15:49.441Z,94.97
2023-01-17T23:18:35.374Z,95.02
2023-01-17T23:21:04.986Z,94.96
2023-01-17T23:23:33.406Z,95.10
2023-01-17T23:26:01.691Z,95.03
2023-01-17T23:28:28.750Z,95.07
2023-01-17T23:31:03.177Z,95.27
2023-01-17T23:33:31.299Z,95.22
2023-01-17T23:35:59.456Z,94.79
2023-01-17T23:38:30.167Z,94.65
2023-01-17T23:41:20.374Z,94.76
2023-01-17T23:43:52.041Z,94.72
2023-01-17T23:46:20.373Z,94.66
2023-01-17T23:48:48.786Z,94.66
2023-01-17T23:51:17.244Z,94.63
2023-01-17T23:53:46.808Z,94.77
2023-01-17T23:56:18.138Z,94.72
2023-01-17T23:58:46.554Z,94.44
